sensor_id;sensor_type;location;lat;lon;timestamp;P1;durP1;ratioP1;P2;durP2;ratioP2
23119;SDS011;11729;50.836;4.330;2022-10-30T00:00:54;15.73;;;10.20;;
23119;SDS011;11729;50.836;4.330;2022-10-30T00:03:19;24.17;;;11.13;;
23119;SDS011;11729;50.836;4.330;2022-10-30T00:05:46;20.63;;;10.10;;
23119;SDS011;11729;50.836;4.330;2022-10-30T00:10:40;17.80;;;10.75;;
23119;SDS011;11729;50.836;4.330;2022-10-30T00:13:06;23.40;;;10.80;;
23119;SDS011;11729;50.836;4.330;2022-10-30T00:15:32;27.20;;;10.25;;
23119;SDS011;11729;50.836;4.330;2022-10-30T00:17:57;19.83;;;11.10;;
23119;SDS011;11729;50.836;4.330;2022-10-30T00:20:24;17.90;;;10.80;;
23119;SDS011;11729;50.836;4.330;2022-10-30T00:22:50;24.27;;;11.05;;
23119;SDS011;11729;50.836;4.330;2022-10-30T00:25:15;23.90;;;10.27;;
23119;SDS011;11729;50.836;4.330;2022-10-30T00:27:41;25.55;;;11.00;;
23119;SDS011;11729;50.836;4.330;2022-10-30T00:30:07;22.30;;;11.02;;
23119;SDS011;11729;50.836;4.330;2022-10-30T00:32:33;20.08;;;10.68;;
23119;SDS011;11729;50.836;4.330;2022-10-30T00:34:58;18.55;;;10.27;;
23119;SDS011;11729;50.836;4.330;2022-10-30T00:37:24;22.95;;;11.45;;
23119;SDS011;11729;50.836;4.330;2022-10-30T00:39:49;19.88;;;11.50;;
23119;SDS011;11729;50.836;4.330;2022-10-30T00:42:15;17.75;;;11.40;;
23119;SDS011;11729;50.836;4.330;2022-10-30T00:47:11;21.13;;;10.55;;
23119;SDS011;11729;50.836;4.330;2022-10-30T00:49:49;19.58;;;10.65;;
23119;SDS011;11729;50.836;4.330;2022-10-30T00:52:16;16.50;;;10.52;;
23119;SDS011;11729;50.836;4.330;2022-10-30T00:54:42;21.13;;;10.05;;
23119;SDS011;11729;50.836;4.330;2022-10-30T00:57:08;17.23;;;9.57;;
23119;SDS011;11729;50.836;4.330;2022-10-30T00:59:34;17.45;;;10.93;;
23119;SDS011;11729;50.836;4.330;2022-10-30T01:02:01;20.55;;;10.35;;
23119;SDS011;11729;50.836;4.330;2022-10-30T01:04:28;19.65;;;10.40;;
23119;SDS011;11729;50.836;4.330;2022-10-30T01:06:55;26.48;;;11.48;;
23119;SDS011;11729;50.836;4.330;2022-10-30T01:09:22;17.25;;;10.95;;
23119;SDS011;11729;50.836;4.330;2022-10-30T01:11:47;19.98;;;10.65;;
23119;SDS011;11729;50.836;4.330;2022-10-30T01:14:14;16.10;;;10.48;;
23119;SDS011;11729;50.836;4.330;2022-10-30T01:17:29;21.25;;;11.07;;
23119;SDS011;11729;50.836;4.330;2022-10-30T01:38:35;22.55;;;11.93;;
23119;SDS011;11729;50.836;4.330;2022-10-30T01:41:30;22.20;;;11.55;;
23119;SDS011;11729;50.836;4.330;2022-10-30T01:43:58;16.20;;;10.77;;
23119;SDS011;11729;50.836;4.330;2022-10-30T01:52:34;22.38;;;12.55;;
23119;SDS011;11729;50.836;4.330;2022-10-30T01:54:56;26.90;;;12.68;;
23119;SDS011;11729;50.836;4.330;2022-10-30T01:57:50;16.83;;;10.70;;
23119;SDS011;11729;50.836;4.330;2022-10-30T02:00:22;21.10;;;11.63;;
23119;SDS011;11729;50.836;4.330;2022-10-30T02:02:48;17.45;;;11.20;;
23119;SDS011;11729;50.836;4.330;2022-10-30T02:05:57;26.02;;;12.15;;
23119;SDS011;11729;50.836;4.330;2022-10-30T02:08:09;19.90;;;11.13;;
23119;SDS011;11729;50.836;4.330;2022-10-30T02:10:35;22.40;;;12.15;;
23119;SDS011;11729;50.836;4.330;2022-10-30T02:13:01;20.55;;;11.40;;
23119;SDS011;11729;50.836;4.330;2022-10-30T02:15:27;24.90;;;12.07;;
23119;SDS011;11729;50.836;4.330;2022-10-30T02:17:54;27.10;;;12.00;;
23119;SDS011;11729;50.836;4.330;2022-10-30T02:20:20;15.63;;;11.48;;
23119;SDS011;11729;50.836;4.330;2022-10-30T02:22:46;20.00;;;12.43;;
23119;SDS011;11729;50.836;4.330;2022-10-30T02:25:13;22.98;;;11.88;;
23119;SDS011;11729;50.836;4.330;2022-10-30T02:27:39;28.10;;;12.50;;
23119;SDS011;11729;50.836;4.330;2022-10-30T02:30:04;24.10;;;12.48;;
23119;SDS011;11729;50.836;4.330;2022-10-30T02:32:31;23.00;;;12.45;;
23119;SDS011;11729;50.836;4.330;2022-10-30T02:34:56;21.35;;;11.80;;
23119;SDS011;11729;50.836;4.330;2022-10-30T02:37:22;21.98;;;12.00;;
23119;SDS011;11729;50.836;4.330;2022-10-30T02:39:51;18.90;;;11.85;;
23119;SDS011;11729;50.836;4.330;2022-10-30T02:42:17;22.00;;;12.27;;
23119;SDS011;11729;50.836;4.330;2022-10-30T02:44:42;21.52;;;12.65;;
23119;SDS011;11729;50.836;4.330;2022-10-30T02:47:08;21.55;;;12.40;;
23119;SDS011;11729;50.836;4.330;2022-10-30T02:49:34;18.83;;;11.98;;
23119;SDS011;11729;50.836;4.330;2022-10-30T02:52:00;23.52;;;12.15;;
23119;SDS011;11729;50.836;4.330;2022-10-30T02:54:25;29.17;;;12.75;;
23119;SDS011;11729;50.836;4.330;2022-10-30T02:56:51;21.90;;;12.30;;
23119;SDS011;11729;50.836;4.330;2022-10-30T02:59:16;23.05;;;12.85;;
23119;SDS011;11729;50.836;4.330;2022-10-30T03:01:42;22.42;;;12.60;;
23119;SDS011;11729;50.836;4.330;2022-10-30T03:04:08;22.02;;;11.98;;
23119;SDS011;11729;50.836;4.330;2022-10-30T03:06:33;29.33;;;13.05;;
23119;SDS011;11729;50.836;4.330;2022-10-30T03:08:59;22.55;;;12.52;;
23119;SDS011;11729;50.836;4.330;2022-10-30T03:11:24;18.90;;;11.90;;
23119;SDS011;11729;50.836;4.330;2022-10-30T03:13:50;22.67;;;12.05;;
23119;SDS011;11729;50.836;4.330;2022-10-30T03:16:17;26.20;;;12.40;;
23119;SDS011;11729;50.836;4.330;2022-10-30T03:18:45;23.52;;;12.20;;
23119;SDS011;11729;50.836;4.330;2022-10-30T03:21:12;19.83;;;12.35;;
23119;SDS011;11729;50.836;4.330;2022-10-30T03:23:40;19.75;;;12.40;;
23119;SDS011;11729;50.836;4.330;2022-10-30T03:26:06;19.48;;;12.20;;
23119;SDS011;11729;50.836;4.330;2022-10-30T03:28:32;24.35;;;12.73;;
23119;SDS011;11729;50.836;4.330;2022-10-30T03:31:02;23.90;;;11.77;;
23119;SDS011;11729;50.836;4.330;2022-10-30T03:33:30;22.45;;;11.75;;
23119;SDS011;11729;50.836;4.330;2022-10-30T03:35:56;20.63;;;12.13;;
23119;SDS011;11729;50.836;4.330;2022-10-30T03:38:23;23.35;;;11.80;;
23119;SDS011;11729;50.836;4.330;2022-10-30T03:40:49;19.35;;;11.73;;
23119;SDS011;11729;50.836;4.330;2022-10-30T03:43:15;28.05;;;12.25;;
23119;SDS011;11729;50.836;4.330;2022-10-30T03:45:45;18.55;;;12.30;;
23119;SDS011;11729;50.836;4.330;2022-10-30T03:48:16;23.95;;;11.60;;
23119;SDS011;11729;50.836;4.330;2022-10-30T03:50:43;16.65;;;11.73;;
23119;SDS011;11729;50.836;4.330;2022-10-30T03:53:09;20.52;;;12.15;;
23119;SDS011;11729;50.836;4.330;2022-10-30T03:55:35;24.92;;;12.10;;
23119;SDS011;11729;50.836;4.330;2022-10-30T03:58:00;21.63;;;12.25;;
23119;SDS011;11729;50.836;4.330;2022-10-30T04:00:26;22.50;;;12.18;;
23119;SDS011;11729;50.836;4.330;2022-10-30T04:02:52;22.35;;;11.75;;
23119;SDS011;11729;50.836;4.330;2022-10-30T04:05:18;24.98;;;12.68;;
23119;SDS011;11729;50.836;4.330;2022-10-30T04:07:45;28.65;;;11.98;;
23119;SDS011;11729;50.836;4.330;2022-10-30T04:10:12;23.75;;;12.93;;
23119;SDS011;11729;50.836;4.330;2022-10-30T04:12:38;23.23;;;12.43;;
23119;SDS011;11729;50.836;4.330;2022-10-30T04:15:04;31.60;;;12.63;;
23119;SDS011;11729;50.836;4.330;2022-10-30T04:17:31;20.70;;;13.32;;
23119;SDS011;11729;50.836;4.330;2022-10-30T04:19:57;24.45;;;13.50;;
23119;SDS011;11729;50.836;4.330;2022-10-30T04:22:22;20.10;;;11.68;;
23119;SDS011;11729;50.836;4.330;2022-10-30T04:24:48;21.70;;;12.10;;
23119;SDS011;11729;50.836;4.330;2022-10-30T04:27:14;16.80;;;12.05;;
23119;SDS011;11729;50.836;4.330;2022-10-30T04:29:40;20.23;;;12.27;;
23119;SDS011;11729;50.836;4.330;2022-10-30T04:32:08;24.30;;;12.90;;
23119;SDS011;11729;50.836;4.330;2022-10-30T04:34:34;23.13;;;12.77;;
23119;SDS011;11729;50.836;4.330;2022-10-30T04:37:00;22.90;;;12.65;;
23119;SDS011;11729;50.836;4.330;2022-10-30T04:39:26;25.67;;;12.95;;
23119;SDS011;11729;50.836;4.330;2022-10-30T04:41:51;18.60;;;12.23;;
23119;SDS011;11729;50.836;4.330;2022-10-30T04:44:17;24.25;;;12.50;;
23119;SDS011;11729;50.836;4.330;2022-10-30T04:46:42;24.30;;;12.00;;
23119;SDS011;11729;50.836;4.330;2022-10-30T04:49:08;24.05;;;13.23;;
23119;SDS011;11729;50.836;4.330;2022-10-30T04:51:34;20.30;;;11.98;;
23119;SDS011;11729;50.836;4.330;2022-10-30T04:53:59;25.15;;;12.98;;
23119;SDS011;11729;50.836;4.330;2022-10-30T04:56:25;23.60;;;13.10;;
23119;SDS011;11729;50.836;4.330;2022-10-30T04:58:50;26.35;;;13.25;;
23119;SDS011;11729;50.836;4.330;2022-10-30T05:01:17;19.95;;;12.48;;
23119;SDS011;11729;50.836;4.330;2022-10-30T05:03:43;19.58;;;12.25;;
23119;SDS011;11729;50.836;4.330;2022-10-30T05:06:14;24.50;;;13.13;;
23119;SDS011;11729;50.836;4.330;2022-10-30T05:08:44;22.63;;;13.02;;
23119;SDS011;11729;50.836;4.330;2022-10-30T05:11:09;25.70;;;12.77;;
23119;SDS011;11729;50.836;4.330;2022-10-30T05:13:35;19.83;;;13.20;;
23119;SDS011;11729;50.836;4.330;2022-10-30T05:16:00;23.00;;;13.40;;
23119;SDS011;11729;50.836;4.330;2022-10-30T05:18:26;26.67;;;13.23;;
23119;SDS011;11729;50.836;4.330;2022-10-30T05:20:52;26.75;;;13.30;;
23119;SDS011;11729;50.836;4.330;2022-10-30T05:23:17;25.98;;;13.88;;
23119;SDS011;11729;50.836;4.330;2022-10-30T05:25:43;26.60;;;14.10;;
23119;SDS011;11729;50.836;4.330;2022-10-30T05:28:08;30.38;;;13.95;;
23119;SDS011;11729;50.836;4.330;2022-10-30T05:30:34;29.23;;;14.60;;
23119;SDS011;11729;50.836;4.330;2022-10-30T05:33:00;20.00;;;13.27;;
23119;SDS011;11729;50.836;4.330;2022-10-30T05:35:30;23.10;;;13.73;;
23119;SDS011;11729;50.836;4.330;2022-10-30T05:37:58;26.55;;;14.10;;
23119;SDS011;11729;50.836;4.330;2022-10-30T05:40:25;24.50;;;13.68;;
23119;SDS011;11729;50.836;4.330;2022-10-30T05:42:50;25.02;;;14.48;;
23119;SDS011;11729;50.836;4.330;2022-10-30T05:45:16;23.40;;;13.48;;
23119;SDS011;11729;50.836;4.330;2022-10-30T05:47:42;25.15;;;13.82;;
23119;SDS011;11729;50.836;4.330;2022-10-30T05:50:08;25.92;;;14.05;;
23119;SDS011;11729;50.836;4.330;2022-10-30T05:52:35;27.42;;;13.60;;
23119;SDS011;11729;50.836;4.330;2022-10-30T05:55:01;24.08;;;13.52;;
23119;SDS011;11729;50.836;4.330;2022-10-30T05:57:27;22.20;;;13.18;;
23119;SDS011;11729;50.836;4.330;2022-10-30T05:59:53;28.90;;;13.52;;
23119;SDS011;11729;50.836;4.330;2022-10-30T06:02:19;24.70;;;13.73;;
23119;SDS011;11729;50.836;4.330;2022-10-30T06:04:45;27.33;;;14.18;;
23119;SDS011;11729;50.836;4.330;2022-10-30T06:07:10;24.33;;;14.05;;
23119;SDS011;11729;50.836;4.330;2022-10-30T06:09:36;21.02;;;13.30;;
23119;SDS011;11729;50.836;4.330;2022-10-30T06:12:02;22.75;;;13.50;;
23119;SDS011;11729;50.836;4.330;2022-10-30T06:14:27;24.17;;;14.15;;
23119;SDS011;11729;50.836;4.330;2022-10-30T06:16:53;25.00;;;14.57;;
23119;SDS011;11729;50.836;4.330;2022-10-30T06:19:19;22.70;;;14.13;;
23119;SDS011;11729;50.836;4.330;2022-10-30T06:21:45;22.20;;;13.63;;
23119;SDS011;11729;50.836;4.330;2022-10-30T06:24:11;23.02;;;14.05;;
23119;SDS011;11729;50.836;4.330;2022-10-30T06:26:36;29.45;;;14.75;;
23119;SDS011;11729;50.836;4.330;2022-10-30T06:29:02;26.52;;;13.90;;
23119;SDS011;11729;50.836;4.330;2022-10-30T06:31:28;32.28;;;15.02;;
23119;SDS011;11729;50.836;4.330;2022-10-30T06:33:54;27.05;;;14.82;;
23119;SDS011;11729;50.836;4.330;2022-10-30T06:36:21;33.00;;;16.40;;
23119;SDS011;11729;50.836;4.330;2022-10-30T06:38:46;30.27;;;16.73;;
23119;SDS011;11729;50.836;4.330;2022-10-30T06:41:12;32.97;;;15.90;;
23119;SDS011;11729;50.836;4.330;2022-10-30T06:43:37;29.35;;;16.00;;
23119;SDS011;11729;50.836;4.330;2022-10-30T06:46:03;26.33;;;16.30;;
23119;SDS011;11729;50.836;4.330;2022-10-30T06:48:29;27.55;;;16.67;;
23119;SDS011;11729;50.836;4.330;2022-10-30T06:50:57;31.45;;;16.52;;
23119;SDS011;11729;50.836;4.330;2022-10-30T06:53:24;27.70;;;16.08;;
23119;SDS011;11729;50.836;4.330;2022-10-30T06:55:56;28.27;;;16.02;;
23119;SDS011;11729;50.836;4.330;2022-10-30T06:58:23;26.85;;;15.68;;
23119;SDS011;11729;50.836;4.330;2022-10-30T07:00:50;32.10;;;17.33;;
23119;SDS011;11729;50.836;4.330;2022-10-30T07:03:15;35.17;;;15.95;;
23119;SDS011;11729;50.836;4.330;2022-10-30T07:05:41;26.30;;;15.15;;
23119;SDS011;11729;50.836;4.330;2022-10-30T07:08:07;31.80;;;14.48;;
23119;SDS011;11729;50.836;4.330;2022-10-30T07:10:33;25.65;;;14.52;;
23119;SDS011;11729;50.836;4.330;2022-10-30T07:12:59;27.63;;;14.35;;
23119;SDS011;11729;50.836;4.330;2022-10-30T07:15:24;26.88;;;15.02;;
23119;SDS011;11729;50.836;4.330;2022-10-30T07:17:52;30.67;;;14.35;;
23119;SDS011;11729;50.836;4.330;2022-10-30T07:20:27;23.70;;;14.23;;
23119;SDS011;11729;50.836;4.330;2022-10-30T07:22:53;25.27;;;14.45;;
23119;SDS011;11729;50.836;4.330;2022-10-30T07:25:20;24.25;;;13.45;;
23119;SDS011;11729;50.836;4.330;2022-10-30T07:27:47;32.55;;;14.63;;
23119;SDS011;11729;50.836;4.330;2022-10-30T07:32:41;24.25;;;13.90;;
23119;SDS011;11729;50.836;4.330;2022-10-30T07:35:08;24.45;;;14.27;;
23119;SDS011;11729;50.836;4.330;2022-10-30T07:37:36;31.27;;;14.00;;
23119;SDS011;11729;50.836;4.330;2022-10-30T07:40:02;27.00;;;12.32;;
23119;SDS011;11729;50.836;4.330;2022-10-30T07:42:28;23.30;;;12.43;;
23119;SDS011;11729;50.836;4.330;2022-10-30T07:44:54;28.42;;;13.07;;
23119;SDS011;11729;50.836;4.330;2022-10-30T07:47:19;23.83;;;12.88;;
23119;SDS011;11729;50.836;4.330;2022-10-30T07:49:45;27.42;;;13.07;;
23119;SDS011;11729;50.836;4.330;2022-10-30T07:52:10;22.52;;;12.23;;
23119;SDS011;11729;50.836;4.330;2022-10-30T07:54:36;22.60;;;12.43;;
23119;SDS011;11729;50.836;4.330;2022-10-30T07:57:01;22.30;;;11.93;;
23119;SDS011;11729;50.836;4.330;2022-10-30T07:59:27;23.67;;;12.38;;
23119;SDS011;11729;50.836;4.330;2022-10-30T08:01:53;26.90;;;12.55;;
23119;SDS011;11729;50.836;4.330;2022-10-30T08:04:18;22.33;;;11.88;;
23119;SDS011;11729;50.836;4.330;2022-10-30T08:06:44;29.65;;;11.63;;
23119;SDS011;11729;50.836;4.330;2022-10-30T08:09:10;30.25;;;12.70;;
23119;SDS011;11729;50.836;4.330;2022-10-30T08:11:35;23.10;;;11.75;;
23119;SDS011;11729;50.836;4.330;2022-10-30T08:14:02;26.90;;;12.88;;
23119;SDS011;11729;50.836;4.330;2022-10-30T08:16:28;28.67;;;14.48;;
23119;SDS011;11729;50.836;4.330;2022-10-30T08:18:53;22.98;;;11.85;;
23119;SDS011;11729;50.836;4.330;2022-10-30T08:21:19;22.48;;;11.77;;
23119;SDS011;11729;50.836;4.330;2022-10-30T08:23:45;28.30;;;11.90;;
23119;SDS011;11729;50.836;4.330;2022-10-30T08:26:10;20.52;;;12.00;;
23119;SDS011;11729;50.836;4.330;2022-10-30T08:28:36;20.75;;;11.55;;
23119;SDS011;11729;50.836;4.330;2022-10-30T08:31:02;22.67;;;11.80;;
23119;SDS011;11729;50.836;4.330;2022-10-30T08:33:28;20.17;;;12.00;;
23119;SDS011;11729;50.836;4.330;2022-10-30T08:35:54;22.95;;;11.88;;
23119;SDS011;11729;50.836;4.330;2022-10-30T08:38:21;20.65;;;12.02;;
23119;SDS011;11729;50.836;4.330;2022-10-30T08:40:47;22.08;;;12.65;;
23119;SDS011;11729;50.836;4.330;2022-10-30T08:43:13;21.08;;;12.40;;
23119;SDS011;11729;50.836;4.330;2022-10-30T08:45:39;21.45;;;11.95;;
23119;SDS011;11729;50.836;4.330;2022-10-30T08:48:05;23.58;;;12.20;;
23119;SDS011;11729;50.836;4.330;2022-10-30T08:50:32;26.80;;;12.57;;
23119;SDS011;11729;50.836;4.330;2022-10-30T08:53:02;25.52;;;12.68;;
23119;SDS011;11729;50.836;4.330;2022-10-30T08:55:30;22.10;;;13.55;;
23119;SDS011;11729;50.836;4.330;2022-10-30T08:57:59;21.10;;;13.75;;
23119;SDS011;11729;50.836;4.330;2022-10-30T09:00:25;28.67;;;13.65;;
23119;SDS011;11729;50.836;4.330;2022-10-30T09:02:51;25.02;;;12.20;;
23119;SDS011;11729;50.836;4.330;2022-10-30T09:05:17;28.88;;;13.73;;
23119;SDS011;11729;50.836;4.330;2022-10-30T09:07:43;27.77;;;12.98;;
23119;SDS011;11729;50.836;4.330;2022-10-30T09:10:09;25.88;;;13.07;;
23119;SDS011;11729;50.836;4.330;2022-10-30T09:12:35;25.30;;;13.80;;
23119;SDS011;11729;50.836;4.330;2022-10-30T09:15:00;23.05;;;13.25;;
23119;SDS011;11729;50.836;4.330;2022-10-30T09:17:26;28.42;;;12.88;;
23119;SDS011;11729;50.836;4.330;2022-10-30T09:19:53;26.60;;;13.55;;
23119;SDS011;11729;50.836;4.330;2022-10-30T09:22:18;30.13;;;14.80;;
23119;SDS011;11729;50.836;4.330;2022-10-30T09:24:44;33.53;;;14.52;;
23119;SDS011;11729;50.836;4.330;2022-10-30T09:27:10;26.63;;;14.25;;
23119;SDS011;11729;50.836;4.330;2022-10-30T09:29:35;26.27;;;13.80;;
23119;SDS011;11729;50.836;4.330;2022-10-30T09:32:01;25.35;;;13.15;;
23119;SDS011;11729;50.836;4.330;2022-10-30T09:34:32;21.00;;;12.80;;
23119;SDS011;11729;50.836;4.330;2022-10-30T09:36:58;28.17;;;13.25;;
23119;SDS011;11729;50.836;4.330;2022-10-30T09:39:23;21.30;;;12.27;;
23119;SDS011;11729;50.836;4.330;2022-10-30T09:44:42;26.02;;;12.27;;
23119;SDS011;11729;50.836;4.330;2022-10-30T09:50:12;25.80;;;11.73;;
23119;SDS011;11729;50.836;4.330;2022-10-30T09:55:28;24.45;;;11.70;;
23119;SDS011;11729;50.836;4.330;2022-10-30T09:57:57;21.08;;;11.07;;
23119;SDS011;11729;50.836;4.330;2022-10-30T10:00:37;28.83;;;12.40;;
23119;SDS011;11729;50.836;4.330;2022-10-30T10:03:12;22.40;;;12.13;;
23119;SDS011;11729;50.836;4.330;2022-10-30T10:11:46;26.35;;;12.50;;
23119;SDS011;11729;50.836;4.330;2022-10-30T10:14:06;25.33;;;12.80;;
23119;SDS011;11729;50.836;4.330;2022-10-30T10:16:39;25.00;;;12.52;;
23119;SDS011;11729;50.836;4.330;2022-10-30T10:19:15;28.27;;;12.52;;
23119;SDS011;11729;50.836;4.330;2022-10-30T10:21:47;27.42;;;12.93;;
23119;SDS011;11729;50.836;4.330;2022-10-30T10:24:25;27.50;;;12.68;;
23119;SDS011;11729;50.836;4.330;2022-10-30T10:26:55;24.65;;;12.43;;
23119;SDS011;11729;50.836;4.330;2022-10-30T10:38:16;29.13;;;12.48;;
23119;SDS011;11729;50.836;4.330;2022-10-30T10:52:28;29.42;;;12.65;;
23119;SDS011;11729;50.836;4.330;2022-10-30T10:55:02;31.50;;;13.02;;
23119;SDS011;11729;50.836;4.330;2022-10-30T10:57:35;23.00;;;12.52;;
23119;SDS011;11729;50.836;4.330;2022-10-30T11:00:04;26.45;;;13.68;;
23119;SDS011;11729;50.836;4.330;2022-10-30T11:05:35;24.25;;;13.35;;
23119;SDS011;11729;50.836;4.330;2022-10-30T11:08:17;29.33;;;12.23;;
23119;SDS011;11729;50.836;4.330;2022-10-30T11:10:47;31.33;;;12.82;;
23119;SDS011;11729;50.836;4.330;2022-10-30T11:13:16;25.13;;;12.07;;
23119;SDS011;11729;50.836;4.330;2022-10-30T11:15:49;24.73;;;11.70;;
23119;SDS011;11729;50.836;4.330;2022-10-30T11:18:21;25.27;;;11.48;;
23119;SDS011;11729;50.836;4.330;2022-10-30T11:20:56;21.15;;;11.40;;
23119;SDS011;11729;50.836;4.330;2022-10-30T11:23:28;21.15;;;10.38;;
23119;SDS011;11729;50.836;4.330;2022-10-30T11:25:56;18.60;;;10.43;;
23119;SDS011;11729;50.836;4.330;2022-10-30T11:28:30;17.48;;;10.30;;
23119;SDS011;11729;50.836;4.330;2022-10-30T11:31:20;18.27;;;9.77;;
23119;SDS011;11729;50.836;4.330;2022-10-30T11:33:48;23.35;;;10.02;;
23119;SDS011;11729;50.836;4.330;2022-10-30T11:36:16;16.33;;;9.23;;
23119;SDS011;11729;50.836;4.330;2022-10-30T11:38:43;22.02;;;9.88;;
23119;SDS011;11729;50.836;4.330;2022-10-30T11:41:09;17.55;;;9.77;;
23119;SDS011;11729;50.836;4.330;2022-10-30T11:43:35;19.55;;;10.02;;
23119;SDS011;11729;50.836;4.330;2022-10-30T11:46:04;16.27;;;9.73;;
23119;SDS011;11729;50.836;4.330;2022-10-30T11:48:33;17.58;;;9.05;;
23119;SDS011;11729;50.836;4.330;2022-10-30T11:51:03;19.08;;;9.23;;
23119;SDS011;11729;50.836;4.330;2022-10-30T11:53:39;19.33;;;8.75;;
23119;SDS011;11729;50.836;4.330;2022-10-30T11:56:15;22.30;;;8.90;;
23119;SDS011;11729;50.836;4.330;2022-10-30T11:58:47;20.92;;;8.73;;
23119;SDS011;11729;50.836;4.330;2022-10-30T12:01:22;18.10;;;8.82;;
23119;SDS011;11729;50.836;4.330;2022-10-30T12:03:51;14.48;;;9.32;;
23119;SDS011;11729;50.836;4.330;2022-10-30T12:06:20;20.50;;;10.32;;
23119;SDS011;11729;50.836;4.330;2022-10-30T12:09:35;26.15;;;15.25;;
23119;SDS011;11729;50.836;4.330;2022-10-30T12:11:45;23.42;;;10.65;;
23119;SDS011;11729;50.836;4.330;2022-10-30T12:14:14;20.57;;;9.87;;
23119;SDS011;11729;50.836;4.330;2022-10-30T12:16:45;18.25;;;9.00;;
23119;SDS011;11729;50.836;4.330;2022-10-30T12:19:12;19.40;;;9.15;;
23119;SDS011;11729;50.836;4.330;2022-10-30T12:21:42;18.85;;;8.80;;
23119;SDS011;11729;50.836;4.330;2022-10-30T12:24:15;19.30;;;9.40;;
23119;SDS011;11729;50.836;4.330;2022-10-30T12:26:48;17.10;;;8.80;;
23119;SDS011;11729;50.836;4.330;2022-10-30T12:29:17;13.77;;;8.95;;
23119;SDS011;11729;50.836;4.330;2022-10-30T12:31:53;21.23;;;9.48;;
23119;SDS011;11729;50.836;4.330;2022-10-30T12:34:32;16.23;;;9.02;;
23119;SDS011;11729;50.836;4.330;2022-10-30T12:37:21;17.83;;;8.48;;
23119;SDS011;11729;50.836;4.330;2022-10-30T12:42:20;20.73;;;8.75;;
23119;SDS011;11729;50.836;4.330;2022-10-30T12:55:45;19.08;;;8.40;;
23119;SDS011;11729;50.836;4.330;2022-10-30T13:00:59;15.13;;;8.60;;
23119;SDS011;11729;50.836;4.330;2022-10-30T13:03:30;15.98;;;7.57;;
23119;SDS011;11729;50.836;4.330;2022-10-30T13:06:15;12.20;;;7.68;;
23119;SDS011;11729;50.836;4.330;2022-10-30T13:14:00;15.50;;;8.02;;
23119;SDS011;11729;50.836;4.330;2022-10-30T13:16:28;19.27;;;7.93;;
23119;SDS011;11729;50.836;4.330;2022-10-30T13:18:56;14.02;;;7.57;;
23119;SDS011;11729;50.836;4.330;2022-10-30T13:26:38;14.10;;;8.18;;
23119;SDS011;11729;50.836;4.330;2022-10-30T13:34:34;20.75;;;7.85;;
23119;SDS011;11729;50.836;4.330;2022-10-30T13:37:30;20.95;;;8.05;;
23119;SDS011;11729;50.836;4.330;2022-10-30T13:48:29;16.90;;;8.18;;
23119;SDS011;11729;50.836;4.330;2022-10-30T13:53:39;19.23;;;8.43;;
23119;SDS011;11729;50.836;4.330;2022-10-30T13:56:09;15.27;;;8.07;;
23119;SDS011;11729;50.836;4.330;2022-10-30T14:01:24;17.52;;;8.18;;
23119;SDS011;11729;50.836;4.330;2022-10-30T14:04:15;18.02;;;8.07;;
23119;SDS011;11729;50.836;4.330;2022-10-30T14:07:13;17.95;;;8.00;;
23119;SDS011;11729;50.836;4.330;2022-10-30T14:10:07;15.95;;;8.63;;
23119;SDS011;11729;50.836;4.330;2022-10-30T14:20:44;18.73;;;9.35;;
23119;SDS011;11729;50.836;4.330;2022-10-30T14:25:39;28.98;;;10.45;;
23119;SDS011;11729;50.836;4.330;2022-10-30T14:28:17;23.05;;;9.80;;
23119;SDS011;11729;50.836;4.330;2022-10-30T14:30:44;25.05;;;10.52;;
23119;SDS011;11729;50.836;4.330;2022-10-30T14:41:39;29.73;;;11.63;;
23119;SDS011;11729;50.836;4.330;2022-10-30T14:44:24;21.77;;;11.68;;
23119;SDS011;11729;50.836;4.330;2022-10-30T14:52:16;20.00;;;11.82;;
23119;SDS011;11729;50.836;4.330;2022-10-30T14:55:00;24.05;;;11.88;;
23119;SDS011;11729;50.836;4.330;2022-10-30T15:02:48;23.10;;;13.00;;
23119;SDS011;11729;50.836;4.330;2022-10-30T15:13:47;23.83;;;12.40;;
23119;SDS011;11729;50.836;4.330;2022-10-30T15:16:23;32.53;;;12.75;;
23119;SDS011;11729;50.836;4.330;2022-10-30T15:18:56;24.10;;;12.38;;
23119;SDS011;11729;50.836;4.330;2022-10-30T15:21:25;31.10;;;13.30;;
23119;SDS011;11729;50.836;4.330;2022-10-30T15:23:55;27.00;;;12.32;;
23119;SDS011;11729;50.836;4.330;2022-10-30T15:26:22;28.70;;;13.65;;
23119;SDS011;11729;50.836;4.330;2022-10-30T15:28:53;26.38;;;13.15;;
23119;SDS011;11729;50.836;4.330;2022-10-30T15:31:19;26.80;;;13.55;;
23119;SDS011;11729;50.836;4.330;2022-10-30T15:33:49;35.55;;;19.48;;
23119;SDS011;11729;50.836;4.330;2022-10-30T15:38:41;20.85;;;12.88;;
23119;SDS011;11729;50.836;4.330;2022-10-30T15:41:07;25.98;;;13.68;;
23119;SDS011;11729;50.836;4.330;2022-10-30T15:43:34;26.40;;;13.88;;
23119;SDS011;11729;50.836;4.330;2022-10-30T15:46:13;27.85;;;13.60;;
23119;SDS011;11729;50.836;4.330;2022-10-30T15:48:43;24.88;;;12.77;;
23119;SDS011;11729;50.836;4.330;2022-10-30T15:51:20;22.08;;;13.65;;
23119;SDS011;11729;50.836;4.330;2022-10-30T15:53:48;24.48;;;14.05;;
23119;SDS011;11729;50.836;4.330;2022-10-30T15:56:34;25.60;;;13.60;;
23119;SDS011;11729;50.836;4.330;2022-10-30T15:59:15;19.10;;;13.13;;
23119;SDS011;11729;50.836;4.330;2022-10-30T16:01:53;27.33;;;13.15;;
23119;SDS011;11729;50.836;4.330;2022-10-30T16:04:41;22.00;;;12.80;;
23119;SDS011;11729;50.836;4.330;2022-10-30T16:10:08;19.70;;;12.70;;
23119;SDS011;11729;50.836;4.330;2022-10-30T16:12:34;26.00;;;12.70;;
23119;SDS011;11729;50.836;4.330;2022-10-30T16:15:05;20.20;;;12.13;;
23119;SDS011;11729;50.836;4.330;2022-10-30T16:17:32;21.02;;;11.90;;
23119;SDS011;11729;50.836;4.330;2022-10-30T16:19:59;26.00;;;12.43;;
23119;SDS011;11729;50.836;4.330;2022-10-30T16:25:00;20.23;;;12.20;;
23119;SDS011;11729;50.836;4.330;2022-10-30T16:27:30;19.83;;;12.27;;
23119;SDS011;11729;50.836;4.330;2022-10-30T16:29:56;19.58;;;11.85;;
23119;SDS011;11729;50.836;4.330;2022-10-30T16:32:24;21.90;;;12.25;;
23119;SDS011;11729;50.836;4.330;2022-10-30T16:34:57;15.48;;;11.32;;
23119;SDS011;11729;50.836;4.330;2022-10-30T16:37:25;23.38;;;10.82;;
23119;SDS011;11729;50.836;4.330;2022-10-30T16:39:57;18.58;;;10.95;;
23119;SDS011;11729;50.836;4.330;2022-10-30T16:42:26;17.73;;;11.23;;
23119;SDS011;11729;50.836;4.330;2022-10-30T16:48:07;19.98;;;12.60;;
23119;SDS011;11729;50.836;4.330;2022-10-30T16:50:38;20.73;;;11.70;;
23119;SDS011;11729;50.836;4.330;2022-10-30T16:53:05;23.00;;;11.63;;
23119;SDS011;11729;50.836;4.330;2022-10-30T16:55:31;16.08;;;10.93;;
23119;SDS011;11729;50.836;4.330;2022-10-30T16:57:58;21.02;;;10.75;;
23119;SDS011;11729;50.836;4.330;2022-10-30T17:00:25;15.02;;;10.75;;
23119;SDS011;11729;50.836;4.330;2022-10-30T17:02:53;19.83;;;10.98;;
23119;SDS011;11729;50.836;4.330;2022-10-30T17:05:29;19.20;;;10.47;;
23119;SDS011;11729;50.836;4.330;2022-10-30T17:07:58;21.50;;;11.30;;
23119;SDS011;11729;50.836;4.330;2022-10-30T17:21:54;24.40;;;11.05;;
23119;SDS011;11729;50.836;4.330;2022-10-30T17:27:00;16.67;;;10.48;;
23119;SDS011;11729;50.836;4.330;2022-10-30T17:32:05;22.77;;;11.90;;
23119;SDS011;11729;50.836;4.330;2022-10-30T17:34:40;20.02;;;11.88;;